sensor_id;sensor_type;location;lat;lon;timestamp;pressure;altitude;pressure_sealevel;temperature;humidity
46464;BME280;32161;48.148;-1.554;2023-04-02T00:00:17;101137.25;;;10.79;95.11
46464;BME280;32161;48.148;-1.554;2023-04-02T00:02:57;101141.50;;;10.68;96.66
46464;BME280;32161;48.148;-1.554;2023-04-02T00:05:47;101148.00;;;10.67;96.53
46464;BME280;32161;48.148;-1.554;2023-04-02T00:08:28;101147.66;;;10.57;96.83
46464;BME280;32161;48.148;-1.554;2023-04-02T00:11:04;101154.50;;;10.66;96.22
46464;BME280;32161;48.148;-1.554;2023-04-02T00:13:35;101164.56;;;10.65;95.86
46464;BME280;32161;48.148;-1.554;2023-04-02T00:16:05;101157.94;;;10.55;96.40
46464;BME280;32161;48.148;-1.554;2023-04-02T00:18:35;101158.38;;;10.51;97.34
46464;BME280;32161;48.148;-1.554;2023-04-02T00:21:14;101157.28;;;10.59;97.37
46464;BME280;32161;48.148;-1.554;2023-04-02T00:23:44;101162.28;;;10.62;97.24
46464;BME280;32161;48.148;-1.554;2023-04-02T00:26:24;101165.97;;;10.68;97.34
46464;BME280;32161;48.148;-1.554;2023-04-02T00:28:56;101174.91;;;10.75;96.95
46464;BME280;32161;48.148;-1.554;2023-04-02T00:31:24;101169.75;;;10.67;97.68
46464;BME280;32161;48.148;-1.554;2023-04-02T00:33:53;101173.19;;;10.56;98.41
46464;BME280;32161;48.148;-1.554;2023-04-02T00:36:21;101179.13;;;10.71;98.29
46464;BME280;32161;48.148;-1.554;2023-04-02T00:38:57;101180.19;;;10.70;98.18
46464;BME280;32161;48.148;-1.554;2023-04-02T00:41:28;101180.63;;;10.67;98.76
46464;BME280;32161;48.148;-1.554;2023-04-02T00:43:58;101185.25;;;10.66;98.42
46464;BME280;32161;48.148;-1.554;2023-04-02T00:46:30;101175.63;;;10.64;99.38
46464;BME280;32161;48.148;-1.554;2023-04-02T00:49:06;101177.53;;;10.63;99.56
46464;BME280;32161;48.148;-1.554;2023-04-02T00:51:40;101189.75;;;10.79;99.45
46464;BME280;32161;48.148;-1.554;2023-04-02T00:54:12;101189.16;;;10.77;98.96
46464;BME280;32161;48.148;-1.554;2023-04-02T00:56:44;101191.16;;;10.88;98.08
46464;BME280;32161;48.148;-1.554;2023-04-02T00:59:21;101196.34;;;10.90;97.91
46464;BME280;32161;48.148;-1.554;2023-04-02T01:01:53;101196.06;;;10.98;97.70
46464;BME280;32161;48.148;-1.554;2023-04-02T01:04:34;101197.16;;;10.97;98.35
46464;BME280;32161;48.148;-1.554;2023-04-02T01:07:08;101197.38;;;10.95;98.09
46464;BME280;32161;48.148;-1.554;2023-04-02T01:10:12;101195.09;;;10.92;98.37
46464;BME280;32161;48.148;-1.554;2023-04-02T01:12:55;101203.91;;;10.88;99.23
46464;BME280;32161;48.148;-1.554;2023-04-02T01:15:32;101207.19;;;10.96;98.79
46464;BME280;32161;48.148;-1.554;2023-04-02T01:18:24;101201.75;;;10.96;99.48
46464;BME280;32161;48.148;-1.554;2023-04-02T01:21:32;101212.69;;;11.15;97.14
46464;BME280;32161;48.148;-1.554;2023-04-02T01:24:05;101209.09;;;10.96;98.43
46464;BME280;32161;48.148;-1.554;2023-04-02T01:26:51;101217.00;;;10.97;99.39
46464;BME280;32161;48.148;-1.554;2023-04-02T01:29:24;101210.22;;;11.07;98.93
46464;BME280;32161;48.148;-1.554;2023-04-02T01:31:57;101209.97;;;11.15;98.38
46464;BME280;32161;48.148;-1.554;2023-04-02T01:34:27;101209.59;;;11.11;97.67
46464;BME280;32161;48.148;-1.554;2023-04-02T01:37:28;101220.75;;;11.03;98.45
46464;BME280;32161;48.148;-1.554;2023-04-02T01:40:21;101223.84;;;11.07;98.86
46464;BME280;32161;48.148;-1.554;2023-04-02T01:42:58;101229.13;;;11.02;99.04
46464;BME280;32161;48.148;-1.554;2023-04-02T01:45:30;101225.56;;;11.01;99.62
46464;BME280;32161;48.148;-1.554;2023-04-02T01:48:01;101220.94;;;11.02;99.39
46464;BME280;32161;48.148;-1.554;2023-04-02T01:50:32;101231.25;;;10.99;99.43
46464;BME280;32161;48.148;-1.554;2023-04-02T01:53:04;101225.56;;;11.01;99.83
46464;BME280;32161;48.148;-1.554;2023-04-02T01:55:38;101232.28;;;10.98;99.47
46464;BME280;32161;48.148;-1.554;2023-04-02T01:58:07;101232.91;;;11.00;99.82
46464;BME280;32161;48.148;-1.554;2023-04-02T02:00:44;101231.41;;;11.05;99.16
46464;BME280;32161;48.148;-1.554;2023-04-02T02:03:15;101225.34;;;11.03;99.41
46464;BME280;32161;48.148;-1.554;2023-04-02T02:05:43;101224.31;;;11.04;99.36
46464;BME280;32161;48.148;-1.554;2023-04-02T02:08:33;101221.72;;;11.09;99.28
46464;BME280;32161;48.148;-1.554;2023-04-02T02:11:05;101223.84;;;11.07;98.92
46464;BME280;32161;48.148;-1.554;2023-04-02T02:13:33;101221.72;;;11.09;98.63
46464;BME280;32161;48.148;-1.554;2023-04-02T02:16:05;101214.63;;;11.08;98.99
46464;BME280;32161;48.148;-1.554;2023-04-02T02:18:33;101214.41;;;11.09;98.61
46464;BME280;32161;48.148;-1.554;2023-04-02T02:21:04;101221.72;;;11.09;98.32
46464;BME280;32161;48.148;-1.554;2023-04-02T02:23:34;101226.13;;;11.10;97.91
46464;BME280;32161;48.148;-1.554;2023-04-02T02:26:04;101230.53;;;11.11;97.82
46464;BME280;32161;48.148;-1.554;2023-04-02T02:28:36;101231.56;;;11.10;97.66
46464;BME280;32161;48.148;-1.554;2023-04-02T02:31:11;101237.63;;;11.12;97.51
46464;BME280;32161;48.148;-1.554;2023-04-02T02:33:45;101237.00;;;11.10;97.40
46464;BME280;32161;48.148;-1.554;2023-04-02T02:36:21;101247.59;;;11.18;97.30
46464;BME280;32161;48.148;-1.554;2023-04-02T02:38:54;101240.44;;;11.23;97.13
46464;BME280;32161;48.148;-1.554;2023-04-02T02:41:29;101239.28;;;11.13;97.55
46464;BME280;32161;48.148;-1.554;2023-04-02T02:44:01;101246.00;;;11.10;97.99
46464;BME280;32161;48.148;-1.554;2023-04-02T02:46:33;101243.50;;;11.09;98.44
46464;BME280;32161;48.148;-1.554;2023-04-02T02:49:03;101256.03;;;11.10;98.41
46464;BME280;32161;48.148;-1.554;2023-04-02T02:51:41;101252.22;;;11.17;98.02
46464;BME280;32161;48.148;-1.554;2023-04-02T02:54:10;101256.16;;;11.21;97.58
46464;BME280;32161;48.148;-1.554;2023-04-02T02:56:43;101259.38;;;11.12;98.21
46464;BME280;32161;48.148;-1.554;2023-04-02T02:59:14;101258.31;;;11.13;98.61
46464;BME280;32161;48.148;-1.554;2023-04-02T03:01:44;101266.88;;;11.16;99.20
46464;BME280;32161;48.148;-1.554;2023-04-02T03:04:18;101262.81;;;11.25;98.37
46464;BME280;32161;48.148;-1.554;2023-04-02T03:06:49;101270.53;;;11.29;97.64
46464;BME280;32161;48.148;-1.554;2023-04-02T03:09:33;101266.59;;;11.24;98.03
46464;BME280;32161;48.148;-1.554;2023-04-02T03:12:07;101280.16;;;11.31;97.48
46464;BME280;32161;48.148;-1.554;2023-04-02T03:14:43;101274.09;;;11.29;98.11
46464;BME280;32161;48.148;-1.554;2023-04-02T03:17:19;101277.16;;;11.39;97.73
46464;BME280;32161;48.148;-1.554;2023-04-02T03:19:53;101292.13;;;11.30;98.11
46464;BME280;32161;48.148;-1.554;2023-04-02T03:22:30;101281.44;;;11.29;98.29
46464;BME280;32161;48.148;-1.554;2023-04-02T03:25:08;101280.25;;;11.18;99.06
46464;BME280;32161;48.148;-1.554;2023-04-02T03:27:46;101284.66;;;11.19;99.09
46464;BME280;32161;48.148;-1.554;2023-04-02T03:30:28;101296.38;;;11.19;98.72
46464;BME280;32161;48.148;-1.554;2023-04-02T03:33:00;101301.97;;;11.24;98.80
46464;BME280;32161;48.148;-1.554;2023-04-02T03:35:35;101296.69;;;11.05;100.00
46464;BME280;32161;48.148;-1.554;2023-04-02T03:38:10;101300.47;;;11.04;100.00
46464;BME280;32161;48.148;-1.554;2023-04-02T03:40:43;101316.97;;;11.09;99.92
46464;BME280;32161;48.148;-1.554;2023-04-02T03:43:20;101318.34;;;11.18;99.62
46464;BME280;32161;48.148;-1.554;2023-04-02T03:45:55;101313.84;;;11.05;100.00
46464;BME280;32161;48.148;-1.554;2023-04-02T03:48:29;101321.31;;;11.16;99.56
46464;BME280;32161;48.148;-1.554;2023-04-02T03:51:02;101328.78;;;11.21;99.19
46464;BME280;32161;48.148;-1.554;2023-04-02T03:53:31;101330.69;;;11.20;99.01
46464;BME280;32161;48.148;-1.554;2023-04-02T03:56:00;101330.81;;;11.00;100.00
46464;BME280;32161;48.148;-1.554;2023-04-02T03:58:36;101330.53;;;11.15;99.39
46464;BME280;32161;48.148;-1.554;2023-04-02T04:01:12;101333.63;;;11.19;99.16
46464;BME280;32161;48.148;-1.554;2023-04-02T04:03:48;101324.41;;;11.20;98.76
46464;BME280;32161;48.148;-1.554;2023-04-02T04:06:22;101336.16;;;11.14;98.34
46464;BME280;32161;48.148;-1.554;2023-04-02T04:08:56;101332.59;;;11.20;98.63
46464;BME280;32161;48.148;-1.554;2023-04-02T04:11:30;101347.28;;;11.12;98.75
46464;BME280;32161;48.148;-1.554;2023-04-02T04:14:02;101347.16;;;11.32;98.25
46464;BME280;32161;48.148;-1.554;2023-04-02T04:16:44;101343.19;;;11.28;97.58
46464;BME280;32161;48.148;-1.554;2023-04-02T04:19:20;101339.81;;;11.33;97.07
46464;BME280;32161;48.148;-1.554;2023-04-02T04:21:49;101344.00;;;11.35;97.27
46464;BME280;32161;48.148;-1.554;2023-04-02T04:24:22;101343.22;;;11.21;97.87
46464;BME280;32161;48.148;-1.554;2023-04-02T04:26:51;101360.38;;;11.22;97.99
46464;BME280;32161;48.148;-1.554;2023-04-02T04:29:34;101355.00;;;11.15;98.80
46464;BME280;32161;48.148;-1.554;2023-04-02T04:32:18;101358.56;;;11.16;98.71
46464;BME280;32161;48.148;-1.554;2023-04-02T04:35:05;101358.75;;;11.14;99.03
46464;BME280;32161;48.148;-1.554;2023-04-02T04:37:37;101359.63;;;11.15;98.93
46464;BME280;32161;48.148;-1.554;2023-04-02T04:40:14;101359.13;;;11.24;97.84
46464;BME280;32161;48.148;-1.554;2023-04-02T04:42:47;101370.03;;;11.18;97.54
46464;BME280;32161;48.148;-1.554;2023-04-02T04:45:33;101377.03;;;11.07;98.49
46464;BME280;32161;48.148;-1.554;2023-04-02T04:48:05;101381.56;;;11.20;97.77
46464;BME280;32161;48.148;-1.554;2023-04-02T04:50:39;101377.19;;;11.19;97.71
46464;BME280;32161;48.148;-1.554;2023-04-02T04:53:16;101382.81;;;11.17;97.13
46464;BME280;32161;48.148;-1.554;2023-04-02T04:55:48;101387.59;;;11.22;97.07
46464;BME280;32161;48.148;-1.554;2023-04-02T04:58:23;101394.53;;;11.18;97.47
46464;BME280;32161;48.148;-1.554;2023-04-02T05:01:01;101399.56;;;11.21;97.50
46464;BME280;32161;48.148;-1.554;2023-04-02T05:03:34;101407.72;;;11.21;97.41
46464;BME280;32161;48.148;-1.554;2023-04-02T05:06:10;101404.97;;;11.28;96.29
46464;BME280;32161;48.148;-1.554;2023-04-02T05:08:43;101418.78;;;11.26;96.59
46464;BME280;32161;48.148;-1.554;2023-04-02T05:11:18;101414.25;;;11.13;97.42
46464;BME280;32161;48.148;-1.554;2023-04-02T05:13:51;101407.75;;;11.14;97.55
46464;BME280;32161;48.148;-1.554;2023-04-02T05:16:24;101413.84;;;11.10;97.73
46464;BME280;32161;48.148;-1.554;2023-04-02T05:19:00;101414.50;;;11.05;98.11
46464;BME280;32161;48.148;-1.554;2023-04-02T05:21:40;101419.69;;;11.13;97.97
46464;BME280;32161;48.148;-1.554;2023-04-02T05:24:39;101421.03;;;10.97;97.68
46464;BME280;32161;48.148;-1.554;2023-04-02T05:27:21;101424.16;;;10.94;98.05
46464;BME280;32161;48.148;-1.554;2023-04-02T05:29:56;101434.78;;;11.03;97.05
46464;BME280;32161;48.148;-1.554;2023-04-02T05:32:29;101429.34;;;11.03;96.38
46464;BME280;32161;48.148;-1.554;2023-04-02T05:34:58;101439.41;;;11.02;96.50
46464;BME280;32161;48.148;-1.554;2023-04-02T05:37:29;101440.91;;;10.91;96.43
46464;BME280;32161;48.148;-1.554;2023-04-02T05:40:02;101452.03;;;10.90;96.63
46464;BME280;32161;48.148;-1.554;2023-04-02T05:42:35;101452.75;;;11.10;95.28
46464;BME280;32161;48.148;-1.554;2023-04-02T05:45:18;101456.38;;;11.04;94.13
46464;BME280;32161;48.148;-1.554;2023-04-02T05:47:49;101456.16;;;10.99;94.45
46464;BME280;32161;48.148;-1.554;2023-04-02T05:50:27;101454.97;;;10.88;94.81
46464;BME280;32161;48.148;-1.554;2023-04-02T05:53:02;101468.59;;;10.82;94.73
46464;BME280;32161;48.148;-1.554;2023-04-02T05:55:40;101467.75;;;10.74;94.94
46464;BME280;32161;48.148;-1.554;2023-04-02T05:58:16;101467.97;;;10.73;94.13
46464;BME280;32161;48.148;-1.554;2023-04-02T06:01:09;101469.66;;;10.74;93.99
46464;BME280;32161;48.148;-1.554;2023-04-02T06:03:46;101476.75;;;10.75;92.54
46464;BME280;32161;48.148;-1.554;2023-04-02T06:06:23;101490.56;;;10.67;92.65
46464;BME280;32161;48.148;-1.554;2023-04-02T06:08:58;101483.47;;;10.59;92.35
46464;BME280;32161;48.148;-1.554;2023-04-02T06:11:35;101493.53;;;10.59;91.17
46464;BME280;32161;48.148;-1.554;2023-04-02T06:14:09;101491.88;;;10.58;90.39
46464;BME280;32161;48.148;-1.554;2023-04-02T06:16:38;101496.88;;;10.54;89.75
46464;BME280;32161;48.148;-1.554;2023-04-02T06:19:13;101500.44;;;10.48;89.44
46464;BME280;32161;48.148;-1.554;2023-04-02T06:21:46;101501.47;;;10.20;89.49
46464;BME280;32161;48.148;-1.554;2023-04-02T06:24:20;101511.09;;;10.30;90.54
46464;BME280;32161;48.148;-1.554;2023-04-02T06:26:54;101508.63;;;10.35;89.91
46464;BME280;32161;48.148;-1.554;2023-04-02T06:29:29;101516.13;;;10.33;89.38
46464;BME280;32161;48.148;-1.554;2023-04-02T06:32:00;101516.34;;;10.38;89.08
46464;BME280;32161;48.148;-1.554;2023-04-02T06:34:30;101527.63;;;10.35;88.72
46464;BME280;32161;48.148;-1.554;2023-04-02T06:37:00;101524.69;;;10.36;88.41
46464;BME280;32161;48.148;-1.554;2023-04-02T06:39:30;101528.47;;;10.42;87.72
46464;BME280;32161;48.148;-1.554;2023-04-02T06:42:02;101536.22;;;10.38;87.76
46464;BME280;32161;48.148;-1.554;2023-04-02T06:44:33;101533.25;;;10.33;88.05
46464;BME280;32161;48.148;-1.554;2023-04-02T06:47:06;101547.50;;;10.35;88.34
46464;BME280;32161;48.148;-1.554;2023-04-02T06:49:43;101555.44;;;10.30;88.09
46464;BME280;32161;48.148;-1.554;2023-04-02T06:52:17;101556.47;;;10.29;89.34
46464;BME280;32161;48.148;-1.554;2023-04-02T06:54:49;101557.94;;;10.45;88.62
46464;BME280;32161;48.148;-1.554;2023-04-02T06:57:17;101560.44;;;10.60;88.61
46464;BME280;32161;48.148;-1.554;2023-04-02T06:59:46;101562.75;;;10.69;88.14
46464;BME280;32161;48.148;-1.554;2023-04-02T07:02:27;101563.38;;;10.58;89.18
46464;BME280;32161;48.148;-1.554;2023-04-02T07:05:01;101556.91;;;10.46;90.10
46464;BME280;32161;48.148;-1.554;2023-04-02T07:07:29;101561.50;;;10.59;89.90
46464;BME280;32161;48.148;-1.554;2023-04-02T07:09:58;101574.22;;;10.25;90.63
46464;BME280;32161;48.148;-1.554;2023-04-02T07:12:26;101571.31;;;10.26;91.54
46464;BME280;32161;48.148;-1.554;2023-04-02T07:14:53;101574.44;;;10.37;90.81
46464;BME280;32161;48.148;-1.554;2023-04-02T07:17:21;101572.38;;;10.45;90.90
46464;BME280;32161;48.148;-1.554;2023-04-02T07:19:49;101573.41;;;10.44;90.82
46464;BME280;32161;48.148;-1.554;2023-04-02T07:22:17;101592.44;;;10.31;91.66
46464;BME280;32161;48.148;-1.554;2023-04-02T07:24:45;101595.97;;;10.45;91.21
46464;BME280;32161;48.148;-1.554;2023-04-02T07:27:14;101591.41;;;10.59;90.99
46464;BME280;32161;48.148;-1.554;2023-04-02T07:29:42;101604.97;;;10.52;91.60
46464;BME280;32161;48.148;-1.554;2023-04-02T07:32:11;101608.31;;;10.47;91.48
46464;BME280;32161;48.148;-1.554;2023-04-02T07:34:39;101614.19;;;10.71;91.06
46464;BME280;32161;48.148;-1.554;2023-04-02T07:37:09;101622.56;;;10.49;92.12
46464;BME280;32161;48.148;-1.554;2023-04-02T07:39:39;101623.19;;;10.58;92.05
46464;BME280;32161;48.148;-1.554;2023-04-02T07:42:07;101619.19;;;10.61;92.04
46464;BME280;32161;48.148;-1.554;2023-04-02T07:44:36;101627.38;;;10.81;91.68
46464;BME280;32161;48.148;-1.554;2023-04-02T07:47:04;101620.66;;;10.70;91.77
46464;BME280;32161;48.148;-1.554;2023-04-02T07:49:32;101625.69;;;10.66;91.90
46464;BME280;32161;48.148;-1.554;2023-04-02T07:52:00;101616.47;;;10.61;92.00
46464;BME280;32161;48.148;-1.554;2023-04-02T07:54:27;101632.78;;;10.67;92.82
46464;BME280;32161;48.148;-1.554;2023-04-02T07:56:55;101634.91;;;10.65;93.11
46464;BME280;32161;48.148;-1.554;2023-04-02T07:59:23;101632.38;;;10.64;92.89
46464;BME280;32161;48.148;-1.554;2023-04-02T08:01:52;101628.00;;;10.63;93.62
46464;BME280;32161;48.148;-1.554;2023-04-02T08:04:21;101635.09;;;10.84;94.02
46464;BME280;32161;48.148;-1.554;2023-04-02T08:06:49;101640.97;;;10.74;93.69
46464;BME280;32161;48.148;-1.554;2023-04-02T08:09:18;101638.44;;;10.86;93.79
46464;BME280;32161;48.148;-1.554;2023-04-02T08:11:45;101641.13;;;11.19;91.47
46464;BME280;32161;48.148;-1.554;2023-04-02T08:14:13;101653.03;;;11.18;91.40
46464;BME280;32161;48.148;-1.554;2023-04-02T08:16:46;101648.28;;;11.00;91.35
46464;BME280;32161;48.148;-1.554;2023-04-02T08:19:15;101641.97;;;11.06;91.55
46464;BME280;32161;48.148;-1.554;2023-04-02T08:21:43;101661.03;;;10.80;92.12
46464;BME280;32161;48.148;-1.554;2023-04-02T08:24:11;101649.75;;;10.89;92.70
46464;BME280;32161;48.148;-1.554;2023-04-02T08:26:38;101657.88;;;10.76;91.88
46464;BME280;32161;48.148;-1.554;2023-04-02T08:29:06;101653.94;;;10.79;91.83
46464;BME280;32161;48.148;-1.554;2023-04-02T08:31:34;101653.31;;;10.96;92.09
46464;BME280;32161;48.148;-1.554;2023-04-02T08:34:01;101655.38;;;11.01;92.77
46464;BME280;32161;48.148;-1.554;2023-04-02T08:36:35;101663.31;;;10.76;92.33
46464;BME280;32161;48.148;-1.554;2023-04-02T08:39:04;101651.00;;;10.80;92.13
46464;BME280;32161;48.148;-1.554;2023-04-02T08:41:39;101656.22;;;11.02;92.04
46464;BME280;32161;48.148;-1.554;2023-04-02T08:44:32;101670.00;;;11.27;90.29
46464;BME280;32161;48.148;-1.554;2023-04-02T08:47:05;101668.72;;;11.29;89.80
46464;BME280;32161;48.148;-1.554;2023-04-02T08:49:39;101670.00;;;11.13;90.11
46464;BME280;32161;48.148;-1.554;2023-04-02T08:52:21;101683.41;;;10.95;90.91
46464;BME280;32161;48.148;-1.554;2023-04-02T08:54:49;101670.44;;;11.17;90.02
46464;BME280;32161;48.148;-1.554;2023-04-02T08:57:30;101686.78;;;11.04;89.72
46464;BME280;32161;48.148;-1.554;2023-04-02T09:00:24;101685.09;;;11.03;88.51
46464;BME280;32161;48.148;-1.554;2023-04-02T09:02:56;101693.69;;;10.93;89.27
46464;BME280;32161;48.148;-1.554;2023-04-02T09:05:30;101695.97;;;11.16;88.33
46464;BME280;32161;48.148;-1.554;2023-04-02T09:08:02;101700.97;;;11.39;87.31
46464;BME280;32161;48.148;-1.554;2023-04-02T09:10:37;101700.56;;;11.22;87.58
46464;BME280;32161;48.148;-1.554;2023-04-02T09:13:15;101709.75;;;11.54;88.94
46464;BME280;32161;48.148;-1.554;2023-04-02T09:15:43;101712.03;;;11.57;87.10
46464;BME280;32161;48.148;-1.554;2023-04-02T09:18:14;101721.91;;;11.38;87.95
46464;BME280;32161;48.148;-1.554;2023-04-02T09:20:43;101711.88;;;11.25;85.95
46464;BME280;32161;48.148;-1.554;2023-04-02T09:23:17;101719.59;;;11.35;85.82
46464;BME280;32161;48.148;-1.554;2023-04-02T09:25:49;101715.66;;;11.05;87.10
46464;BME280;32161;48.148;-1.554;2023-04-02T09:28:18;101720.88;;;11.19;86.31
46464;BME280;32161;48.148;-1.554;2023-04-02T09:31:09;101714.81;;;11.11;87.35
46464;BME280;32161;48.148;-1.554;2023-04-02T09:33:43;101727.59;;;11.04;87.57
46464;BME280;32161;48.148;-1.554;2023-04-02T09:36:33;101725.28;;;11.27;86.52
46464;BME280;32161;48.148;-1.554;2023-04-02T09:39:05;101734.28;;;10.94;86.44
46464;BME280;32161;48.148;-1.554;2023-04-02T09:41:42;101735.75;;;10.97;86.84
46464;BME280;32161;48.148;-1.554;2023-04-02T09:44:20;101739.94;;;11.13;86.35
46464;BME280;32161;48.148;-1.554;2023-04-02T09:46:51;101746.00;;;10.88;85.48
46464;BME280;32161;48.148;-1.554;2023-04-02T09:49:23;101745.56;;;10.85;86.22
46464;BME280;32161;48.148;-1.554;2023-04-02T09:52:20;101749.06;;;10.59;87.50
46464;BME280;32161;48.148;-1.554;2023-04-02T09:55:21;101757.69;;;10.82;86.08
46464;BME280;32161;48.148;-1.554;2023-04-02T09:58:04;101750.19;;;10.84;84.51
46464;BME280;32161;48.148;-1.554;2023-04-02T10:00:33;101758.50;;;10.63;86.37
46464;BME280;32161;48.148;-1.554;2023-04-02T10:03:05;101762.47;;;10.54;87.46
46464;BME280;32161;48.148;-1.554;2023-04-02T10:05:43;101769.38;;;10.63;87.70
46464;BME280;32161;48.148;-1.554;2023-04-02T10:08:20;101777.53;;;10.63;88.84
46464;BME280;32161;48.148;-1.554;2023-04-02T10:10:55;101768.59;;;10.89;87.92
46464;BME280;32161;48.148;-1.554;2023-04-02T10:13:28;101769.84;;;10.86;87.15
46464;BME280;32161;48.148;-1.554;2023-04-02T10:16:03;101768.16;;;10.85;87.90
46464;BME280;32161;48.148;-1.554;2023-04-02T10:18:40;101771.09;;;10.97;87.95
46464;BME280;32161;48.148;-1.554;2023-04-02T10:21:13;101773.59;;;10.98;87.30
46464;BME280;32161;48.148;-1.554;2023-04-02T10:23:42;101777.41;;;11.11;88.36
46464;BME280;32161;48.148;-1.554;2023-04-02T10:26:46;101784.31;;;11.27;87.05
46464;BME280;32161;48.148;-1.554;2023-04-02T10:29:36;101788.06;;;11.32;86.95
46464;BME280;32161;48.148;-1.554;2023-04-02T10:32:09;101787.44;;;11.50;85.02
46464;BME280;32161;48.148;-1.554;2023-04-02T10:34:46;101775.28;;;11.53;85.87
46464;BME280;32161;48.148;-1.554;2023-04-02T10:37:56;101781.75;;;11.78;84.09
46464;BME280;32161;48.148;-1.554;2023-04-02T10:40:29;101790.75;;;11.72;85.14
46464;BME280;32161;48.148;-1.554;2023-04-02T10:43:33;101790.97;;;11.64;85.35
46464;BME280;32161;48.148;-1.554;2023-04-02T10:46:08;101798.53;;;11.62;86.84
46464;BME280;32161;48.148;-1.554;2023-04-02T10:48:46;101795.59;;;11.70;86.18
46464;BME280;32161;48.148;-1.554;2023-04-02T10:51:29;101797.41;;;12.03;84.83
46464;BME280;32161;48.148;-1.554;2023-04-02T10:54:09;101797.66;;;11.74;85.49
46464;BME280;32161;48.148;-1.554;2023-04-02T10:56:43;101808.78;;;12.00;82.75
46464;BME280;32161;48.148;-1.554;2023-04-02T10:59:16;101798.94;;;11.85;83.38
46464;BME280;32161;48.148;-1.554;2023-04-02T11:01:46;101813.16;;;11.94;83.76
46464;BME280;32161;48.148;-1.554;2023-04-02T11:04:20;101815.88;;;12.01;82.58
46464;BME280;32161;48.148;-1.554;2023-04-02T11:06:52;101810.88;;;11.91;82.13
46464;BME280;32161;48.148;-1.554;2023-04-02T11:09:24;101828.69;;;11.80;83.00
46464;BME280;32161;48.148;-1.554;2023-04-02T11:11:57;101821.56;;;11.92;82.68
46464;BME280;32161;48.148;-1.554;2023-04-02T11:14:29;101828.44;;;12.15;83.56
46464;BME280;32161;48.148;-1.554;2023-04-02T11:17:00;101828.63;;;12.13;80.93
46464;BME280;32161;48.148;-1.554;2023-04-02T11:19:30;101832.34;;;12.32;79.32
46464;BME280;32161;48.148;-1.554;2023-04-02T11:21:59;101835.31;;;12.24;79.12
46464;BME280;32161;48.148;-1.554;2023-04-02T11:24:36;101835.25;;;12.37;79.84
46464;BME280;32161;48.148;-1.554;2023-04-02T11:27:19;101834.56;;;11.90;80.89
46464;BME280;32161;48.148;-1.554;2023-04-02T11:29:56;101832.19;;;12.20;79.89
46464;BME280;32161;48.148;-1.554;2023-04-02T11:32:36;101842.78;;;12.49;79.15
46464;BME280;32161;48.148;-1.554;2023-04-02T11:35:37;101843.66;;;12.42;81.36
46464;BME280;32161;48.148;-1.554;2023-04-02T11:38:48;101848.44;;;12.47;79.98
46464;BME280;32161;48.148;-1.554;2023-04-02T11:42:01;101850.66;;;12.18;80.09
46464;BME280;32161;48.148;-1.554;2023-04-02T11:44:28;101841.25;;;12.08;81.74
46464;BME280;32161;48.148;-1.554;2023-04-02T11:47:19;101865.59;;;11.89;81.66
46464;BME280;32161;48.148;-1.554;2023-04-02T11:50:02;101860.31;;;12.08;80.16
46464;BME280;32161;48.148;-1.554;2023-04-02T11:52:37;101864.31;;;11.98;79.99
46464;BME280;32161;48.148;-1.554;2023-04-02T11:55:28;101855.69;;;12.08;81.19
46464;BME280;32161;48.148;-1.554;2023-04-02T11:58:35;101852.06;;;12.34;80.85
46464;BME280;32161;48.148;-1.554;2023-04-02T12:05:02;101847.47;;;12.28;80.95
46464;BME280;32161;48.148;-1.554;2023-04-02T12:10:56;101860.34;;;12.66;82.44
46464;BME280;32161;48.148;-1.554;2023-04-02T12:13:50;101864.22;;;12.83;80.38
46464;BME280;32161;48.148;-1.554;2023-04-02T12:16:19;101867.03;;;13.08;77.17
46464;BME280;32161;48.148;-1.554;2023-04-02T12:18:51;101859.06;;;13.07;78.30
46464;BME280;32161;48.148;-1.554;2023-04-02T12:21:24;101867.31;;;12.93;77.15
46464;BME280;32161;48.148;-1.554;2023-04-02T12:23:54;101867.03;;;13.08;78.13
46464;BME280;32161;48.148;-1.554;2023-04-02T12:26:31;101872.00;;;13.25;77.36
46464;BME280;32161;48.148;-1.554;2023-04-02T12:29:23;101868.78;;;13.34;76.88
46464;BME280;32161;48.148;-1.554;2023-04-02T12:31:52;101864.84;;;13.30;76.80
46464;BME280;32161;48.148;-1.554;2023-04-02T12:34:22;101869.59;;;13.41;76.56
46464;BME280;32161;48.148;-1.554;2023-04-02T12:36:54;101868.84;;;13.53;75.09
46464;BME280;32161;48.148;-1.554;2023-04-02T12:39:22;101878.09;;;13.20;76.68
46464;BME280;32161;48.148;-1.554;2023-04-02T12:41:50;101881.41;;;13.22;76.50
46464;BME280;32161;48.148;-1.554;2023-04-02T12:44:20;101878.56;;;13.10;77.25
46464;BME280;32161;48.148;-1.554;2023-04-02T12:46:49;101885.91;;;13.10;76.54
46464;BME280;32161;48.148;-1.554;2023-04-02T12:49:30;101886.69;;;12.85;79.36
46464;BME280;32161;48.148;-1.554;2023-04-02T12:52:05;101873.50;;;13.14;79.95
46464;BME280;32161;48.148;-1.554;2023-04-02T12:54:42;101875.09;;;13.35;76.42
46464;BME280;32161;48.148;-1.554;2023-04-02T12:57:38;101879.59;;;13.48;74.82
46464;BME280;32161;48.148;-1.554;2023-04-02T13:00:32;101883.88;;;13.37;75.46
46464;BME280;32161;48.148;-1.554;2023-04-02T13:03:18;101887.09;;;13.27;76.03
46464;BME280;32161;48.148;-1.554;2023-04-02T13:05:51;101891.38;;;13.10;75.24
46464;BME280;32161;48.148;-1.554;2023-04-02T13:08:24;101894.06;;;13.23;75.29
46464;BME280;32161;48.148;-1.554;2023-04-02T13:10:55;101891.28;;;13.30;76.54
46464;BME280;32161;48.148;-1.554;2023-04-02T13:13:28;101896.09;;;13.34;76.97
46464;BME280;32161;48.148;-1.554;2023-04-02T13:16:06;101893.81;;;13.31;76.34
46464;BME280;32161;48.148;-1.554;2023-04-02T13:18:36;101902.44;;;13.22;76.90
46464;BME280;32161;48.148;-1.554;2023-04-02T13:21:05;101893.00;;;13.17;78.03
46464;BME280;32161;48.148;-1.554;2023-04-02T13:23:37;101901.84;;;13.13;77.97
46464;BME280;32161;48.148;-1.554;2023-04-02T13:26:20;101897.38;;;13.32;78.03
46464;BME280;32161;48.148;-1.554;2023-04-02T13:28:57;101898.22;;;13.26;78.24